createdAt,value
2023-02-19T00:00:47.433Z,30.26
2023-02-19T00:01:47.456Z,28.26
2023-02-19T00:02:47.412Z,28.42
2023-02-19T00:03:47.555Z,29.12
2023-02-19T00:04:47.411Z,28.78
2023-02-19T00:05:50.362Z,32.82
2023-02-19T00:06:50.359Z,32.92
2023-02-19T00:07:47.358Z,33.02
2023-02-19T00:55:33.152Z,25.00
2023-02-19T00:56:34.150Z,25.00
2023-02-19T00:57:34.116Z,25.00
2023-02-19T00:58:34.107Z,25.00
2023-02-19T00:59:34.096Z,25.00
2023-02-19T01:00:34.108Z,25.00
2023-02-19T01:01:34.108Z,0.00
2023-02-19T01:02:34.067Z,0.00
2023-02-19T01:03:34.063Z,0.00
2023-02-19T01:04:34.120Z,0.00
2023-02-19T01:05:34.036Z,0.00
2023-02-19T01:06:34.041Z,9.98
2023-02-19T01:07:34.018Z,24.98
2023-02-19T01:08:34.050Z,25.00
2023-02-19T01:09:33.995Z,25.48
2023-02-19T01:10:33.986Z,23.38
2023-02-19T01:11:34.021Z,25.83
2023-02-19T01:12:33.970Z,25.67
2023-02-19T01:13:33.967Z,25.00
2023-02-19T01:14:33.960Z,25.82
2023-02-19T01:15:33.943Z,25.71
2023-02-19T01:16:33.937Z,25.01
2023-02-19T01:17:33.921Z,26.83
2023-02-19T01:18:33.915Z,28.19
2023-02-19T01:19:33.922Z,28.77
2023-02-19T01:20:33.900Z,26.35
2023-02-19T01:21:33.890Z,26.04
2023-02-19T01:22:33.875Z,25.00
2023-02-19T01:23:33.868Z,25.00
2023-02-19T01:24:33.861Z,25.25
2023-02-19T01:25:33.863Z,28.88
2023-02-19T01:26:33.843Z,25.00
2023-02-19T01:27:33.863Z,29.16
2023-02-19T01:28:33.830Z,27.92
2023-02-19T01:29:33.813Z,26.13
2023-02-19T01:30:33.964Z,27.32
2023-02-19T01:31:33.974Z,29.02
2023-02-19T01:32:33.798Z,28.56
2023-02-19T01:33:33.806Z,26.90
2023-02-19T01:34:33.772Z,29.02
2023-02-19T01:35:33.765Z,27.51
2023-02-19T01:36:33.752Z,27.47
2023-02-19T01:37:33.746Z,29.25
2023-02-19T01:38:33.736Z,29.63
2023-02-19T01:39:33.726Z,29.21
2023-02-19T01:40:33.718Z,26.19
2023-02-19T01:41:33.716Z,26.66
2023-02-19T01:42:33.708Z,31.98
2023-02-19T01:43:33.729Z,29.56
2023-02-19T01:44:33.684Z,30.24
2023-02-19T01:45:33.676Z,28.82
2023-02-19T01:46:33.760Z,27.46
2023-02-19T01:47:33.665Z,31.83
2023-02-19T01:48:33.649Z,28.17
2023-02-19T01:49:33.639Z,29.41
2023-02-19T01:50:33.636Z,25.62
2023-02-19T01:51:33.628Z,27.63
2023-02-19T01:52:33.630Z,27.15
2023-02-19T01:53:33.606Z,26.05
2023-02-19T01:54:33.597Z,28.01
2023-02-19T01:55:33.589Z,27.31
2023-02-19T01:56:33.588Z,27.64
2023-02-19T01:57:33.570Z,31.49
2023-02-19T01:58:33.571Z,26.63
2023-02-19T01:59:33.592Z,24.94
2023-02-19T02:00:33.579Z,29.80
2023-02-19T02:01:33.531Z,30.31
2023-02-19T02:02:33.528Z,29.21
2023-02-19T02:03:33.525Z,29.59
2023-02-19T02:04:33.509Z,27.82
2023-02-19T02:05:33.501Z,30.03
2023-02-19T02:06:33.486Z,29.76
2023-02-19T02:07:33.480Z,26.18
2023-02-19T02:08:33.478Z,30.09
2023-02-19T02:09:33.468Z,28.45
2023-02-19T02:10:33.456Z,26.09
2023-02-19T02:11:33.445Z,29.44
2023-02-19T02:12:33.437Z,29.24
2023-02-19T02:13:33.427Z,29.75
2023-02-19T02:14:33.423Z,26.62
2023-02-19T02:15:33.434Z,29.03
2023-02-19T02:16:33.457Z,28.51
2023-02-19T02:17:33.392Z,29.30
2023-02-19T02:18:33.389Z,25.00
2023-02-19T02:19:33.388Z,27.90
2023-02-19T04:14:32.360Z,30.57
2023-02-19T04:15:32.355Z,34.40
2023-02-19T04:16:32.387Z,29.62
2023-02-19T04:17:33.289Z,29.98
2023-02-19T04:18:32.322Z,30.68
2023-02-19T04:19:32.314Z,31.97
2023-02-19T04:20:32.305Z,29.82
2023-02-19T04:21:32.298Z,30.37
2023-02-19T04:22:32.283Z,28.98
2023-02-19T04:23:32.290Z,26.84
2023-02-19T04:24:32.270Z,29.97
2023-02-19T05:08:30.870Z,29.16
2023-02-19T08:57:29.769Z,29.24
2023-02-19T10:47:28.772Z,34.85
2023-02-19T10:48:28.766Z,32.95
2023-02-19T13:23:27.371Z,33.06
2023-02-19T14:19:26.853Z,49.92
2023-02-19T14:22:26.830Z,51.23
2023-02-19T15:09:26.391Z,46.63
2023-02-19T16:43:25.556Z,58.56
2023-02-19T16:51:25.471Z,63.54
2023-02-19T16:58:25.406Z,61.43
2023-02-19T17:00:25.393Z,63.44
2023-02-19T17:03:25.363Z,64.22
2023-02-19T17:05:25.350Z,63.06
2023-02-19T17:10:25.314Z,61.22
2023-02-19T17:11:25.295Z,64.33
2023-02-19T17:13:25.269Z,61.07
2023-02-19T17:14:25.268Z,65.12
2023-02-19T17:15:25.252Z,63.00
2023-02-19T17:16:25.349Z,60.21
2023-02-19T17:18:25.238Z,59.50
2023-02-19T17:20:25.212Z,62.36
2023-02-19T17:21:25.198Z,58.95
2023-02-19T17:22:25.188Z,60.86
2023-02-19T17:24:25.170Z,58.41
2023-02-19T17:25:25.173Z,57.69
2023-02-19T17:26:25.151Z,56.86
2023-02-19T17:27:25.145Z,57.68
2023-02-19T17:28:25.139Z,53.40
2023-02-19T17:29:25.125Z,53.67
2023-02-19T17:30:25.156Z,52.89
2023-02-19T17:31:25.209Z,51.50
2023-02-19T17:32:25.221Z,54.36
2023-02-19T17:33:25.094Z,55.17
2023-02-19T17:34:25.083Z,55.24
2023-02-19T17:35:25.070Z,52.89
2023-02-19T17:36:25.060Z,55.76
2023-02-19T17:37:25.055Z,54.14
2023-02-19T17:38:25.046Z,57.41
2023-02-19T17:39:25.053Z,57.36
2023-02-19T17:40:32.752Z,55.75
2023-02-19T17:41:25.028Z,56.07
2023-02-19T17:42:25.007Z,56.95
2023-02-19T17:43:25.577Z,57.17
2023-02-19T17:44:24.984Z,60.24
2023-02-19T17:45:24.980Z,60.42
2023-02-19T17:46:24.968Z,60.04
2023-02-19T17:47:24.961Z,59.50
2023-02-19T17:48:24.956Z,60.57
2023-02-19T17:49:24.939Z,59.60
2023-02-19T17:50:24.931Z,61.10
2023-02-19T17:51:24.943Z,62.28
2023-02-19T17:52:25.556Z,60.53
2023-02-19T17:53:24.928Z,60.17
2023-02-19T17:54:24.905Z,58.11
2023-02-19T17:55:24.885Z,59.39
2023-02-19T17:56:24.882Z,59.49
2023-02-19T17:57:24.867Z,58.80
2023-02-19T17:58:24.858Z,60.18
2023-02-19T17:59:24.851Z,60.68
2023-02-19T18:00:24.861Z,57.98
2023-02-19T18:01:24.906Z,60.44
2023-02-19T18:02:24.825Z,55.06
2023-02-19T18:03:24.807Z,58.68
2023-02-19T18:04:24.805Z,57.36
2023-02-19T18:05:24.803Z,60.80
2023-02-19T18:06:24.807Z,57.18
2023-02-19T18:07:24.784Z,54.94
2023-02-19T18:08:24.766Z,55.83
2023-02-19T18:09:24.755Z,61.44
2023-02-19T18:10:24.752Z,56.28
2023-02-19T18:11:24.742Z,56.54
2023-02-19T18:12:24.745Z,58.73
2023-02-19T18:13:24.724Z,53.74
2023-02-19T18:14:24.720Z,58.39
2023-02-19T18:15:24.704Z,56.37
2023-02-19T18:16:24.734Z,57.01
2023-02-19T18:17:24.689Z,58.85
2023-02-19T18:18:24.698Z,54.85
2023-02-19T18:19:24.669Z,56.36
2023-02-19T18:20:24.662Z,52.62
2023-02-19T18:21:24.655Z,56.61
2023-02-19T18:22:24.644Z,56.12
2023-02-19T18:23:24.634Z,56.27
2023-02-19T18:24:24.621Z,58.62
2023-02-19T18:25:24.623Z,58.84
2023-02-19T18:26:24.634Z,57.56
2023-02-19T18:27:24.596Z,56.50
2023-02-19T18:28:24.588Z,61.58
2023-02-19T18:29:24.588Z,56.02
2023-02-19T18:30:24.643Z,60.03
2023-02-19T18:31:24.656Z,57.54
2023-02-19T18:32:24.556Z,58.70
2023-02-19T18:33:24.542Z,57.85
2023-02-19T18:34:24.559Z,59.74
2023-02-19T18:35:24.523Z,59.44
2023-02-19T18:36:24.522Z,61.26
2023-02-19T18:37:24.504Z,54.80
2023-02-19T18:38:24.495Z,59.23
2023-02-19T18:39:24.483Z,60.39
2023-02-19T18:40:24.477Z,57.65
2023-02-19T18:41:24.467Z,59.96
2023-02-19T18:42:24.460Z,57.55
2023-02-19T18:43:24.447Z,60.56
2023-02-19T18:44:24.445Z,60.45
2023-02-19T18:45:24.434Z,58.84
2023-02-19T18:46:24.512Z,55.64
2023-02-19T18:47:24.410Z,62.20
2023-02-19T18:48:24.407Z,55.42
2023-02-19T18:49:24.402Z,59.78
2023-02-19T18:50:24.384Z,59.33
2023-02-19T18:51:24.381Z,59.25
2023-02-19T18:52:24.362Z,58.05
2023-02-19T18:53:24.363Z,56.16
2023-02-19T18:54:24.340Z,55.82
2023-02-19T18:55:24.335Z,57.73
2023-02-19T18:56:24.333Z,53.86
2023-02-19T18:57:24.331Z,61.57
2023-02-19T18:58:24.312Z,58.72
2023-02-19T18:59:24.304Z,55.89
2023-02-19T19:00:24.297Z,57.41
2023-02-19T19:01:24.320Z,55.16
2023-02-19T19:02:24.304Z,55.88
2023-02-19T19:03:24.263Z,58.33
2023-02-19T19:04:24.320Z,57.15
2023-02-19T19:05:24.255Z,57.41
2023-02-19T19:06:24.242Z,56.81
2023-02-19T19:07:24.241Z,56.92
2023-02-19T19:08:24.218Z,59.79
2023-02-19T19:09:24.208Z,62.65
2023-02-19T19:10:24.210Z,60.14
2023-02-19T19:11:24.203Z,59.26
2023-02-19T19:12:24.188Z,62.47
2023-02-19T19:13:24.184Z,62.76
2023-02-19T19:14:24.163Z,61.29
2023-02-19T19:15:24.171Z,56.36
2023-02-19T19:16:24.148Z,57.01
2023-02-19T19:17:24.140Z,60.57
2023-02-19T19:18:24.137Z,61.64
2023-02-19T19:19:24.125Z,60.86
2023-02-19T19:20:24.181Z,59.69
2023-02-19T19:21:24.114Z,58.85
2023-02-19T19:22:24.145Z,59.79
2023-02-19T19:23:24.085Z,59.14
2023-02-19T19:24:24.101Z,60.99
2023-02-19T19:25:24.079Z,61.81
2023-02-19T19:26:24.062Z,64.18
2023-02-19T19:27:24.053Z,56.25
2023-02-19T19:28:24.058Z,63.02
2023-02-19T19:29:24.041Z,58.93
2023-02-19T19:30:24.130Z,58.81
2023-02-19T19:31:24.119Z,56.83
2023-02-19T19:32:24.077Z,55.84
2023-02-19T19:33:24.008Z,59.04
2023-02-19T19:34:23.985Z,57.40
2023-02-19T19:35:24.012Z,57.53
2023-02-19T19:36:23.970Z,55.77
2023-02-19T19:37:23.954Z,58.72
2023-02-19T19:38:23.951Z,55.00
2023-02-19T19:39:23.940Z,58.24
2023-02-19T19:40:23.953Z,58.31
2023-02-19T19:41:23.922Z,55.71
2023-02-19T19:42:23.920Z,59.61
2023-02-19T19:43:23.897Z,57.10
2023-02-19T19:44:23.889Z,58.72
2023-02-19T19:45:23.925Z,53.45
2023-02-19T19:46:23.916Z,57.01
2023-02-19T19:47:23.864Z,55.35
2023-02-19T19:48:23.859Z,54.95
2023-02-19T19:49:23.862Z,56.31
2023-02-19T19:50:23.837Z,58.11
2023-02-19T19:51:23.829Z,53.61
2023-02-19T19:52:23.818Z,56.66
2023-02-19T19:53:23.808Z,58.79
2023-02-19T19:54:23.802Z,57.44
2023-02-19T19:55:23.799Z,58.49
2023-02-19T19:56:23.788Z,57.53
2023-02-19T19:57:23.778Z,52.23
2023-02-19T19:58:23.762Z,56.68
2023-02-19T19:59:23.749Z,55.99
2023-02-19T20:00:23.740Z,52.64
2023-02-19T20:01:23.786Z,56.71
2023-02-19T20:02:23.798Z,58.41
2023-02-19T20:03:23.714Z,55.06
2023-02-19T20:04:23.714Z,54.68
2023-02-19T20:05:23.695Z,57.31
2023-02-19T20:06:23.688Z,58.89
2023-02-19T20:07:23.686Z,55.81
2023-02-19T20:08:23.672Z,54.19
2023-02-19T20:09:23.660Z,53.58
2023-02-19T20:10:23.647Z,58.78
2023-02-19T20:11:23.641Z,54.43
2023-02-19T20:12:23.632Z,53.17
2023-02-19T20:14:23.616Z,57.97
2023-02-19T20:15:23.602Z,59.19
2023-02-19T20:16:23.591Z,56.69
2023-02-19T20:17:23.581Z,54.68
2023-02-19T20:18:23.573Z,60.49
2023-02-19T20:19:23.568Z,57.72
2023-02-19T20:20:23.553Z,58.78
2023-02-19T20:21:23.541Z,57.39
2023-02-19T20:22:23.535Z,55.22
2023-02-19T20:23:23.525Z,58.35
2023-02-19T20:24:23.528Z,56.09
2023-02-19T20:31:23.539Z,55.61
2023-02-19T20:32:23.513Z,56.88
2023-02-19T20:33:23.431Z,56.19
2023-02-19T20:34:23.428Z,55.91
2023-02-19T20:35:25.688Z,55.41
2023-02-19T20:36:23.409Z,55.58
2023-02-19T20:37:23.399Z,55.87
2023-02-19T20:38:23.385Z,51.77
2023-02-19T20:39:23.376Z,56.21
2023-02-19T20:40:23.368Z,58.40
2023-02-19T20:41:23.364Z,53.96
2023-02-19T20:42:23.345Z,54.46
2023-02-19T20:43:23.336Z,54.43
2023-02-19T20:44:23.339Z,54.84
2023-02-19T20:45:23.322Z,54.80
2023-02-19T20:46:23.322Z,53.89
2023-02-19T20:47:23.300Z,52.56
2023-02-19T20:48:23.293Z,53.53
2023-02-19T20:49:23.283Z,52.48
2023-02-19T20:50:23.272Z,54.49
2023-02-19T20:51:23.263Z,51.38
2023-02-19T20:52:24.125Z,52.53
2023-02-19T20:53:23.245Z,56.92
2023-02-19T20:54:23.240Z,53.63
2023-02-19T20:55:23.227Z,48.92
2023-02-19T20:56:23.219Z,49.59
2023-02-19T20:57:23.213Z,51.84
2023-02-19T20:58:23.195Z,52.20
2023-02-19T20:59:23.190Z,50.09
2023-02-19T21:00:23.203Z,54.03
2023-02-19T21:01:23.186Z,55.22
2023-02-19T21:02:23.242Z,54.74
2023-02-19T21:03:23.166Z,51.51
2023-02-19T21:04:23.144Z,49.92
2023-02-19T21:05:23.131Z,52.52
2023-02-19T21:06:23.120Z,49.94
2023-02-19T21:07:23.112Z,50.39
2023-02-19T21:08:23.109Z,55.18
2023-02-19T21:09:23.102Z,50.88
2023-02-19T21:10:23.092Z,51.84
2023-02-19T21:11:23.074Z,52.17
2023-02-19T21:12:23.064Z,48.54
2023-02-19T21:13:23.059Z,50.81
2023-02-19T21:14:23.052Z,50.04
2023-02-19T21:15:23.038Z,50.76
2023-02-19T21:16:23.082Z,48.23
2023-02-19T21:17:23.028Z,52.82
2023-02-19T21:18:23.015Z,49.12
2023-02-19T21:19:23.007Z,50.67
2023-02-19T21:20:22.990Z,51.33
2023-02-19T21:21:22.981Z,51.26
2023-02-19T21:22:22.986Z,49.89
2023-02-19T21:23:22.963Z,51.77
2023-02-19T21:24:22.962Z,52.96
2023-02-19T21:25:22.956Z,50.29
2023-02-19T21:26:23.633Z,49.59
2023-02-19T21:27:23.639Z,49.02
2023-02-19T21:28:22.917Z,50.44
2023-02-19T21:29:23.638Z,53.45
2023-02-19T21:30:22.941Z,51.25
2023-02-19T21:31:25.386Z,50.86
2023-02-19T21:32:23.074Z,50.97
2023-02-19T21:33:22.869Z,51.49
2023-02-19T21:34:23.641Z,52.33
2023-02-19T21:35:22.854Z,54.32
2023-02-19T21:36:22.855Z,54.01
2023-02-19T21:37:22.848Z,51.45
2023-02-19T21:38:22.826Z,55.80
2023-02-19T21:39:22.819Z,53.63
2023-02-19T21:40:22.809Z,54.25
2023-02-19T21:41:22.799Z,54.12
2023-02-19T21:42:22.782Z,54.66
2023-02-19T21:43:22.785Z,54.52
2023-02-19T21:44:22.810Z,55.31
2023-02-19T21:45:22.767Z,55.69
2023-02-19T21:46:22.754Z,51.60
2023-02-19T21:47:22.759Z,51.84
2023-02-19T21:48:22.733Z,52.84
2023-02-19T21:49:22.731Z,52.96
2023-02-19T21:50:22.737Z,53.87
2023-02-19T21:51:23.847Z,52.90
2023-02-19T21:52:22.693Z,57.01
2023-02-19T21:53:22.689Z,54.55
2023-02-19T21:54:22.680Z,53.53
2023-02-19T21:55:22.665Z,53.32
2023-02-19T21:56:22.652Z,54.25
2023-02-19T21:57:22.646Z,48.73
2023-02-19T21:58:22.639Z,49.40
2023-02-19T21:59:22.649Z,52.86
2023-02-19T22:00:22.616Z,51.32
2023-02-19T22:01:22.620Z,54.34
2023-02-19T22:02:22.611Z,51.85
2023-02-19T22:03:22.598Z,54.32
2023-02-19T22:04:22.580Z,53.32
2023-02-19T22:05:22.569Z,54.78
2023-02-19T22:06:22.570Z,55.27
2023-02-19T22:07:22.560Z,55.89
2023-02-19T22:08:22.540Z,57.13
2023-02-19T22:09:22.535Z,55.09
2023-02-19T22:10:22.524Z,53.52
2023-02-19T22:11:22.511Z,54.48
2023-02-19T22:12:22.503Z,54.37
2023-02-19T22:13:22.498Z,52.97
2023-02-19T22:14:22.486Z,51.18
2023-02-19T22:15:25.151Z,53.43
2023-02-19T22:17:22.459Z,54.08
2023-02-19T22:18:22.444Z,54.20
2023-02-19T22:19:22.438Z,54.98
2023-02-19T22:20:22.428Z,52.73
2023-02-19T22:21:22.420Z,54.26
2023-02-19T22:22:22.410Z,54.53
2023-02-19T22:23:22.399Z,52.44
2023-02-19T22:24:22.386Z,53.54
2023-02-19T22:25:22.377Z,56.86
2023-02-19T22:26:22.384Z,51.83
2023-02-19T22:27:22.364Z,52.38
2023-02-19T22:28:22.355Z,50.73
2023-02-19T22:29:22.346Z,53.81
2023-02-19T22:30:22.400Z,55.49
2023-02-19T22:31:22.405Z,52.65
2023-02-19T22:32:22.439Z,53.99
2023-02-19T22:33:22.301Z,55.01
2023-02-19T22:34:22.293Z,53.36
2023-02-19T22:35:22.286Z,52.32
2023-02-19T22:36:22.289Z,52.72
2023-02-19T22:37:22.277Z,49.96
2023-02-19T22:38:22.265Z,55.42
2023-02-19T22:39:22.248Z,50.95
2023-02-19T22:40:22.242Z,54.15
2023-02-19T22:41:22.236Z,52.68
2023-02-19T22:42:22.224Z,48.98
2023-02-19T22:43:22.213Z,51.32
2023-02-19T22:44:22.209Z,50.01
2023-02-19T22:45:22.196Z,48.95
2023-02-19T22:46:22.218Z,53.24
2023-02-19T22:47:22.190Z,52.79
2023-02-19T22:48:30.143Z,55.11
2023-02-19T22:49:22.169Z,55.43
2023-02-19T22:50:22.170Z,55.88
2023-02-19T22:51:22.150Z,54.32
2023-02-19T22:52:22.133Z,54.64
2023-02-19T22:53:22.144Z,52.53
2023-02-19T22:54:22.121Z,54.31
2023-02-19T22:55:22.123Z,54.34
2023-02-19T22:56:22.115Z,52.95
2023-02-19T22:57:22.103Z,53.29
2023-02-19T22:58:22.096Z,51.89
2023-02-19T22:59:22.075Z,54.16
2023-02-19T23:00:22.077Z,55.29
2023-02-19T23:01:22.139Z,51.65
2023-02-19T23:02:22.102Z,51.74
2023-02-19T23:03:22.044Z,52.76
2023-02-19T23:04:22.081Z,54.39
2023-02-19T23:05:22.017Z,52.34
2023-02-19T23:06:22.010Z,52.87
2023-02-19T23:07:22.004Z,52.87
2023-02-19T23:09:22.001Z,52.38
2023-02-19T23:10:21.981Z,51.45
2023-02-19T23:11:21.969Z,48.95
2023-02-19T23:12:21.959Z,52.59
2023-02-19T23:13:21.946Z,48.72
2023-02-19T23:14:21.950Z,50.79
2023-02-19T23:15:21.932Z,49.53
2023-02-19T23:16:21.984Z,51.14
2023-02-19T23:17:21.939Z,53.01
2023-02-19T23:18:21.898Z,49.49
2023-02-19T23:19:21.895Z,45.10
2023-02-19T23:20:21.888Z,48.87
2023-02-19T23:21:21.881Z,48.32
2023-02-19T23:22:21.866Z,46.34
2023-02-19T23:23:21.857Z,51.21
2023-02-19T23:24:21.844Z,50.70
2023-02-19T23:25:21.834Z,46.72
2023-02-19T23:26:21.833Z,44.57
2023-02-19T23:27:21.830Z,45.85
2023-02-19T23:45:21.646Z,51.82
